sensor_id;sensor_type;location;lat;lon;timestamp;pressure;altitude;pressure_sealevel;temperature
24639;BMP180;1641;51.306;12.384;2023-12-20T00:02:17;99724.00;;;7.30
24639;BMP180;1641;51.306;12.384;2023-12-20T00:04:42;99742.00;;;7.20
24639;BMP180;1641;51.306;12.384;2023-12-20T00:07:07;99760.00;;;7.40
24639;BMP180;1641;51.306;12.384;2023-12-20T00:09:33;99756.00;;;7.30
24639;BMP180;1641;51.306;12.384;2023-12-20T00:11:58;99727.00;;;7.10
24639;BMP180;1641;51.306;12.384;2023-12-20T00:14:23;99755.00;;;7.10
24639;BMP180;1641;51.306;12.384;2023-12-20T00:16:48;99723.00;;;6.80
24639;BMP180;1641;51.306;12.384;2023-12-20T00:19:14;99754.00;;;6.80
24639;BMP180;1641;51.306;12.384;2023-12-20T00:21:39;99746.00;;;6.80
24639;BMP180;1641;51.306;12.384;2023-12-20T00:24:04;99756.00;;;6.70
24639;BMP180;1641;51.306;12.384;2023-12-20T00:26:30;99726.00;;;6.70
24639;BMP180;1641;51.306;12.384;2023-12-20T00:28:55;99723.00;;;6.80
24639;BMP180;1641;51.306;12.384;2023-12-20T00:31:21;99726.00;;;6.90
24639;BMP180;1641;51.306;12.384;2023-12-20T00:33:46;99711.00;;;7.00
24639;BMP180;1641;51.306;12.384;2023-12-20T00:36:12;99730.00;;;6.90
24639;BMP180;1641;51.306;12.384;2023-12-20T00:38:37;99725.00;;;6.80
24639;BMP180;1641;51.306;12.384;2023-12-20T00:41:03;99723.00;;;6.90
24639;BMP180;1641;51.306;12.384;2023-12-20T00:43:28;99730.00;;;6.80
24639;BMP180;1641;51.306;12.384;2023-12-20T00:45:53;99706.00;;;7.10
24639;BMP180;1641;51.306;12.384;2023-12-20T00:48:18;99726.00;;;6.90
24639;BMP180;1641;51.306;12.384;2023-12-20T00:50:47;99730.00;;;6.90
24639;BMP180;1641;51.306;12.384;2023-12-20T00:53:12;99720.00;;;6.80
24639;BMP180;1641;51.306;12.384;2023-12-20T00:55:37;99719.00;;;6.90
24639;BMP180;1641;51.306;12.384;2023-12-20T00:58:03;99721.00;;;6.70
24639;BMP180;1641;51.306;12.384;2023-12-20T01:00:28;99721.00;;;6.80
24639;BMP180;1641;51.306;12.384;2023-12-20T01:02:53;99713.00;;;6.80
24639;BMP180;1641;51.306;12.384;2023-12-20T01:05:19;99685.00;;;6.90
24639;BMP180;1641;51.306;12.384;2023-12-20T01:07:47;99704.00;;;6.90
24639;BMP180;1641;51.306;12.384;2023-12-20T01:10:12;99716.00;;;6.90
24639;BMP180;1641;51.306;12.384;2023-12-20T01:12:37;99713.00;;;7.00
24639;BMP180;1641;51.306;12.384;2023-12-20T01:15:03;99700.00;;;7.20
24639;BMP180;1641;51.306;12.384;2023-12-20T01:17:28;99723.00;;;7.00
24639;BMP180;1641;51.306;12.384;2023-12-20T01:19:54;99721.00;;;6.90
24639;BMP180;1641;51.306;12.384;2023-12-20T01:22:22;99691.00;;;6.80
24639;BMP180;1641;51.306;12.384;2023-12-20T01:24:47;99681.00;;;6.90
24639;BMP180;1641;51.306;12.384;2023-12-20T01:27:12;99696.00;;;7.20
24639;BMP180;1641;51.306;12.384;2023-12-20T01:29:37;99703.00;;;7.20
24639;BMP180;1641;51.306;12.384;2023-12-20T01:32:03;99688.00;;;7.00
24639;BMP180;1641;51.306;12.384;2023-12-20T01:34:29;99680.00;;;7.10
24639;BMP180;1641;51.306;12.384;2023-12-20T01:36:54;99688.00;;;7.00
24639;BMP180;1641;51.306;12.384;2023-12-20T01:39:19;99686.00;;;7.00
24639;BMP180;1641;51.306;12.384;2023-12-20T01:41:45;99676.00;;;7.00
24639;BMP180;1641;51.306;12.384;2023-12-20T01:44:10;99682.00;;;7.10
24639;BMP180;1641;51.306;12.384;2023-12-20T01:46:39;99684.00;;;6.80
24639;BMP180;1641;51.306;12.384;2023-12-20T01:49:04;99678.00;;;6.60
24639;BMP180;1641;51.306;12.384;2023-12-20T01:51:36;99600.00;;;6.70
24639;BMP180;1641;51.306;12.384;2023-12-20T01:54:05;99680.00;;;6.80
24639;BMP180;1641;51.306;12.384;2023-12-20T01:56:32;99682.00;;;6.80
24639;BMP180;1641;51.306;12.384;2023-12-20T01:58:57;99633.00;;;6.70
24639;BMP180;1641;51.306;12.384;2023-12-20T02:01:23;99653.00;;;6.80
24639;BMP180;1641;51.306;12.384;2023-12-20T02:03:49;99680.00;;;6.70
24639;BMP180;1641;51.306;12.384;2023-12-20T02:06:15;99685.00;;;6.90
24639;BMP180;1641;51.306;12.384;2023-12-20T02:08:41;99685.00;;;6.90
24639;BMP180;1641;51.306;12.384;2023-12-20T02:11:06;99676.00;;;6.80
24639;BMP180;1641;51.306;12.384;2023-12-20T02:13:32;99646.00;;;6.70
24639;BMP180;1641;51.306;12.384;2023-12-20T02:15:57;99640.00;;;6.50
24639;BMP180;1641;51.306;12.384;2023-12-20T02:18:22;99664.00;;;6.80
24639;BMP180;1641;51.306;12.384;2023-12-20T02:20:48;99654.00;;;6.90
24639;BMP180;1641;51.306;12.384;2023-12-20T02:23:13;99646.00;;;7.00
24639;BMP180;1641;51.306;12.384;2023-12-20T02:25:38;99658.00;;;7.10
24639;BMP180;1641;51.306;12.384;2023-12-20T02:28:04;99638.00;;;7.10
24639;BMP180;1641;51.306;12.384;2023-12-20T02:30:30;99651.00;;;7.20
24639;BMP180;1641;51.306;12.384;2023-12-20T02:32:56;99644.00;;;7.00
24639;BMP180;1641;51.306;12.384;2023-12-20T02:35:21;99644.00;;;7.30
24639;BMP180;1641;51.306;12.384;2023-12-20T02:37:46;99659.00;;;7.30
24639;BMP180;1641;51.306;12.384;2023-12-20T02:40:12;99655.00;;;7.20
24639;BMP180;1641;51.306;12.384;2023-12-20T02:42:37;99650.00;;;7.10
24639;BMP180;1641;51.306;12.384;2023-12-20T02:45:02;99663.00;;;7.10
24639;BMP180;1641;51.306;12.384;2023-12-20T02:47:28;99663.00;;;7.20
24639;BMP180;1641;51.306;12.384;2023-12-20T02:49:55;99662.00;;;6.90
24639;BMP180;1641;51.306;12.384;2023-12-20T02:52:21;99658.00;;;7.10
24639;BMP180;1641;51.306;12.384;2023-12-20T02:54:47;99620.00;;;7.10
24639;BMP180;1641;51.306;12.384;2023-12-20T02:57:15;99657.00;;;7.20
24639;BMP180;1641;51.306;12.384;2023-12-20T02:59:40;99647.00;;;7.20
24639;BMP180;1641;51.306;12.384;2023-12-20T03:02:06;99637.00;;;7.30
24639;BMP180;1641;51.306;12.384;2023-12-20T03:04:31;99639.00;;;7.30
24639;BMP180;1641;51.306;12.384;2023-12-20T03:06:57;99637.00;;;6.90
24639;BMP180;1641;51.306;12.384;2023-12-20T03:09:23;99635.00;;;6.90
24639;BMP180;1641;51.306;12.384;2023-12-20T03:11:54;99634.00;;;6.90
24639;BMP180;1641;51.306;12.384;2023-12-20T03:14:19;99609.00;;;6.90
24639;BMP180;1641;51.306;12.384;2023-12-20T03:16:50;99631.00;;;6.90
24639;BMP180;1641;51.306;12.384;2023-12-20T03:19:17;99630.00;;;6.60
24639;BMP180;1641;51.306;12.384;2023-12-20T03:21:44;99635.00;;;6.70
24639;BMP180;1641;51.306;12.384;2023-12-20T03:24:09;99632.00;;;6.80
24639;BMP180;1641;51.306;12.384;2023-12-20T03:26:37;99647.00;;;7.10
24639;BMP180;1641;51.306;12.384;2023-12-20T03:29:02;99633.00;;;6.80
24639;BMP180;1641;51.306;12.384;2023-12-20T03:31:30;99611.00;;;6.90
24639;BMP180;1641;51.306;12.384;2023-12-20T03:33:55;99630.00;;;7.10
24639;BMP180;1641;51.306;12.384;2023-12-20T03:36:21;99624.00;;;7.20
24639;BMP180;1641;51.306;12.384;2023-12-20T03:38:46;99624.00;;;7.00
24639;BMP180;1641;51.306;12.384;2023-12-20T03:41:11;99635.00;;;6.80
24639;BMP180;1641;51.306;12.384;2023-12-20T03:43:37;99631.00;;;6.90
24639;BMP180;1641;51.306;12.384;2023-12-20T03:46:03;99636.00;;;7.20
24639;BMP180;1641;51.306;12.384;2023-12-20T03:48:31;99636.00;;;7.20
24639;BMP180;1641;51.306;12.384;2023-12-20T03:50:57;99628.00;;;7.10
24639;BMP180;1641;51.306;12.384;2023-12-20T03:53:22;99633.00;;;7.00
24639;BMP180;1641;51.306;12.384;2023-12-20T03:55:47;99629.00;;;6.80
24639;BMP180;1641;51.306;12.384;2023-12-20T03:58:13;99635.00;;;6.80
24639;BMP180;1641;51.306;12.384;2023-12-20T04:00:38;99644.00;;;6.90
24639;BMP180;1641;51.306;12.384;2023-12-20T04:03:04;99643.00;;;7.20
24639;BMP180;1641;51.306;12.384;2023-12-20T04:05:32;99647.00;;;7.30
24639;BMP180;1641;51.306;12.384;2023-12-20T04:07:59;99636.00;;;7.40
24639;BMP180;1641;51.306;12.384;2023-12-20T04:10:25;99646.00;;;7.30
24639;BMP180;1641;51.306;12.384;2023-12-20T04:12:50;99638.00;;;7.20
24639;BMP180;1641;51.306;12.384;2023-12-20T04:15:15;99651.00;;;7.00
24639;BMP180;1641;51.306;12.384;2023-12-20T04:17:40;99643.00;;;7.20
24639;BMP180;1641;51.306;12.384;2023-12-20T04:20:06;99645.00;;;7.20
24639;BMP180;1641;51.306;12.384;2023-12-20T04:22:34;99641.00;;;7.00
24639;BMP180;1641;51.306;12.384;2023-12-20T04:25:03;99651.00;;;7.00
24639;BMP180;1641;51.306;12.384;2023-12-20T04:27:28;99659.00;;;7.00
24639;BMP180;1641;51.306;12.384;2023-12-20T04:29:56;99658.00;;;7.20
24639;BMP180;1641;51.306;12.384;2023-12-20T04:32:22;99626.00;;;7.10
24639;BMP180;1641;51.306;12.384;2023-12-20T04:34:47;99646.00;;;7.10
24639;BMP180;1641;51.306;12.384;2023-12-20T04:37:12;99646.00;;;7.00
24639;BMP180;1641;51.306;12.384;2023-12-20T04:39:38;99647.00;;;6.90
24639;BMP180;1641;51.306;12.384;2023-12-20T04:42:03;99637.00;;;7.00
24639;BMP180;1641;51.306;12.384;2023-12-20T04:44:37;99641.00;;;7.20
24639;BMP180;1641;51.306;12.384;2023-12-20T04:47:03;99625.00;;;7.10
24639;BMP180;1641;51.306;12.384;2023-12-20T04:49:28;99642.00;;;7.10
24639;BMP180;1641;51.306;12.384;2023-12-20T04:51:53;99647.00;;;7.30
24639;BMP180;1641;51.306;12.384;2023-12-20T04:54:21;99648.00;;;7.20
24639;BMP180;1641;51.306;12.384;2023-12-20T04:56:50;99645.00;;;7.20
24639;BMP180;1641;51.306;12.384;2023-12-20T04:59:15;99651.00;;;7.50
24639;BMP180;1641;51.306;12.384;2023-12-20T05:01:40;99645.00;;;7.10
24639;BMP180;1641;51.306;12.384;2023-12-20T05:04:06;99651.00;;;7.30
24639;BMP180;1641;51.306;12.384;2023-12-20T05:06:31;99658.00;;;7.20
24639;BMP180;1641;51.306;12.384;2023-12-20T05:08:59;99645.00;;;7.20
24639;BMP180;1641;51.306;12.384;2023-12-20T05:11:25;99655.00;;;7.00
24639;BMP180;1641;51.306;12.384;2023-12-20T05:13:50;99656.00;;;7.00
24639;BMP180;1641;51.306;12.384;2023-12-20T05:16:15;99655.00;;;7.10
24639;BMP180;1641;51.306;12.384;2023-12-20T05:18:42;99665.00;;;6.90
24639;BMP180;1641;51.306;12.384;2023-12-20T05:21:08;99664.00;;;7.20
24639;BMP180;1641;51.306;12.384;2023-12-20T05:23:33;99668.00;;;7.40
24639;BMP180;1641;51.306;12.384;2023-12-20T05:25:59;99657.00;;;7.40
24639;BMP180;1641;51.306;12.384;2023-12-20T05:28:24;99617.00;;;7.10
24639;BMP180;1641;51.306;12.384;2023-12-20T05:30:49;99622.00;;;7.00
24639;BMP180;1641;51.306;12.384;2023-12-20T05:33:17;99672.00;;;6.90
24639;BMP180;1641;51.306;12.384;2023-12-20T05:35:43;99650.00;;;6.80
24639;BMP180;1641;51.306;12.384;2023-12-20T05:38:08;99636.00;;;7.10
24639;BMP180;1641;51.306;12.384;2023-12-20T05:40:33;99672.00;;;6.80
24639;BMP180;1641;51.306;12.384;2023-12-20T05:42:58;99674.00;;;6.90
24639;BMP180;1641;51.306;12.384;2023-12-20T05:45:24;99688.00;;;7.10
24639;BMP180;1641;51.306;12.384;2023-12-20T05:47:49;99689.00;;;7.20
24639;BMP180;1641;51.306;12.384;2023-12-20T05:50:15;99695.00;;;7.20
24639;BMP180;1641;51.306;12.384;2023-12-20T05:52:40;99683.00;;;7.10
24639;BMP180;1641;51.306;12.384;2023-12-20T05:55:06;99695.00;;;7.20
24639;BMP180;1641;51.306;12.384;2023-12-20T05:57:31;99705.00;;;7.50
24639;BMP180;1641;51.306;12.384;2023-12-20T05:59:57;99701.00;;;7.80
24639;BMP180;1641;51.306;12.384;2023-12-20T06:02:22;99688.00;;;7.80
24639;BMP180;1641;51.306;12.384;2023-12-20T06:04:48;99680.00;;;7.80
24639;BMP180;1641;51.306;12.384;2023-12-20T06:07:14;99705.00;;;7.40
24639;BMP180;1641;51.306;12.384;2023-12-20T06:09:39;99703.00;;;7.20
24639;BMP180;1641;51.306;12.384;2023-12-20T06:12:04;99703.00;;;7.40
24639;BMP180;1641;51.306;12.384;2023-12-20T06:14:30;99690.00;;;7.00
24639;BMP180;1641;51.306;12.384;2023-12-20T06:16:56;99698.00;;;7.00
24639;BMP180;1641;51.306;12.384;2023-12-20T06:19:21;99697.00;;;6.90
24639;BMP180;1641;51.306;12.384;2023-12-20T06:21:47;99703.00;;;6.90
24639;BMP180;1641;51.306;12.384;2023-12-20T06:24:12;99677.00;;;7.10
24639;BMP180;1641;51.306;12.384;2023-12-20T06:26:37;99701.00;;;7.20
24639;BMP180;1641;51.306;12.384;2023-12-20T06:29:03;99699.00;;;7.20
24639;BMP180;1641;51.306;12.384;2023-12-20T06:31:28;99702.00;;;6.90
24639;BMP180;1641;51.306;12.384;2023-12-20T06:33:54;99682.00;;;6.90
24639;BMP180;1641;51.306;12.384;2023-12-20T06:36:23;99690.00;;;7.10
24639;BMP180;1641;51.306;12.384;2023-12-20T06:38:48;99692.00;;;7.10
24639;BMP180;1641;51.306;12.384;2023-12-20T06:41:13;99718.00;;;7.00
24639;BMP180;1641;51.306;12.384;2023-12-20T06:43:39;99712.00;;;7.00
24639;BMP180;1641;51.306;12.384;2023-12-20T06:46:05;99668.00;;;6.90
24639;BMP180;1641;51.306;12.384;2023-12-20T06:48:31;99705.00;;;7.00
24639;BMP180;1641;51.306;12.384;2023-12-20T06:50:56;99696.00;;;7.00
24639;BMP180;1641;51.306;12.384;2023-12-20T06:53:21;99709.00;;;6.90
24639;BMP180;1641;51.306;12.384;2023-12-20T06:55:47;99701.00;;;7.10
24639;BMP180;1641;51.306;12.384;2023-12-20T06:58:12;99705.00;;;7.00
24639;BMP180;1641;51.306;12.384;2023-12-20T07:00:37;99705.00;;;7.00
24639;BMP180;1641;51.306;12.384;2023-12-20T07:03:03;99702.00;;;6.90
24639;BMP180;1641;51.306;12.384;2023-12-20T07:05:28;99707.00;;;7.10
24639;BMP180;1641;51.306;12.384;2023-12-20T07:07:53;99713.00;;;7.20
24639;BMP180;1641;51.306;12.384;2023-12-20T07:10:19;99688.00;;;7.10
24639;BMP180;1641;51.306;12.384;2023-12-20T07:12:44;99684.00;;;7.10
24639;BMP180;1641;51.306;12.384;2023-12-20T07:15:10;99648.00;;;6.80
24639;BMP180;1641;51.306;12.384;2023-12-20T07:17:35;99685.00;;;6.80
24639;BMP180;1641;51.306;12.384;2023-12-20T07:20:00;99692.00;;;6.80
24639;BMP180;1641;51.306;12.384;2023-12-20T07:22:29;99694.00;;;7.00
24639;BMP180;1641;51.306;12.384;2023-12-20T07:24:56;99659.00;;;6.90
24639;BMP180;1641;51.306;12.384;2023-12-20T07:27:22;99696.00;;;6.90
24639;BMP180;1641;51.306;12.384;2023-12-20T07:29:47;99713.00;;;7.20
24639;BMP180;1641;51.306;12.384;2023-12-20T07:32:12;99710.00;;;7.00
24639;BMP180;1641;51.306;12.384;2023-12-20T07:34:37;99720.00;;;7.20
24639;BMP180;1641;51.306;12.384;2023-12-20T07:37:03;99719.00;;;7.20
24639;BMP180;1641;51.306;12.384;2023-12-20T07:39:29;99730.00;;;7.00
24639;BMP180;1641;51.306;12.384;2023-12-20T07:41:54;99728.00;;;6.90
24639;BMP180;1641;51.306;12.384;2023-12-20T07:44:19;99713.00;;;7.00
24639;BMP180;1641;51.306;12.384;2023-12-20T07:46:48;99722.00;;;7.00
24639;BMP180;1641;51.306;12.384;2023-12-20T07:49:13;99719.00;;;7.20
24639;BMP180;1641;51.306;12.384;2023-12-20T07:51:39;99730.00;;;7.10
24639;BMP180;1641;51.306;12.384;2023-12-20T07:54:04;99733.00;;;7.10
24639;BMP180;1641;51.306;12.384;2023-12-20T07:56:30;99736.00;;;7.10
24639;BMP180;1641;51.306;12.384;2023-12-20T07:58:55;99704.00;;;6.90
24639;BMP180;1641;51.306;12.384;2023-12-20T08:01:20;99739.00;;;7.20
24639;BMP180;1641;51.306;12.384;2023-12-20T08:03:45;99726.00;;;7.20
24639;BMP180;1641;51.306;12.384;2023-12-20T08:06:11;99726.00;;;7.50
24639;BMP180;1641;51.306;12.384;2023-12-20T08:08:36;99714.00;;;7.20
24639;BMP180;1641;51.306;12.384;2023-12-20T08:11:02;99729.00;;;7.20
24639;BMP180;1641;51.306;12.384;2023-12-20T08:13:28;99721.00;;;7.30
24639;BMP180;1641;51.306;12.384;2023-12-20T08:15:53;99712.00;;;7.40
24639;BMP180;1641;51.306;12.384;2023-12-20T08:18:19;99708.00;;;7.40
24639;BMP180;1641;51.306;12.384;2023-12-20T08:20:44;99704.00;;;7.70
24639;BMP180;1641;51.306;12.384;2023-12-20T08:23:09;99719.00;;;7.70
24639;BMP180;1641;51.306;12.384;2023-12-20T08:25:35;99724.00;;;7.70
24639;BMP180;1641;51.306;12.384;2023-12-20T08:28:02;99738.00;;;7.70
24639;BMP180;1641;51.306;12.384;2023-12-20T08:30:28;99736.00;;;7.80
24639;BMP180;1641;51.306;12.384;2023-12-20T08:32:53;99727.00;;;7.70
24639;BMP180;1641;51.306;12.384;2023-12-20T08:35:18;99731.00;;;7.70
24639;BMP180;1641;51.306;12.384;2023-12-20T08:37:47;99726.00;;;8.20
24639;BMP180;1641;51.306;12.384;2023-12-20T08:40:13;99729.00;;;9.60
24639;BMP180;1641;51.306;12.384;2023-12-20T08:42:39;99729.00;;;9.70
24639;BMP180;1641;51.306;12.384;2023-12-20T08:45:04;99705.00;;;10.00
24639;BMP180;1641;51.306;12.384;2023-12-20T08:47:36;99710.00;;;10.00
24639;BMP180;1641;51.306;12.384;2023-12-20T08:50:02;99726.00;;;10.00
24639;BMP180;1641;51.306;12.384;2023-12-20T08:52:28;99723.00;;;9.40
24639;BMP180;1641;51.306;12.384;2023-12-20T08:54:54;99721.00;;;8.80
24639;BMP180;1641;51.306;12.384;2023-12-20T08:57:20;99727.00;;;8.50
24639;BMP180;1641;51.306;12.384;2023-12-20T08:59:49;99705.00;;;8.30
24639;BMP180;1641;51.306;12.384;2023-12-20T09:02:16;99721.00;;;8.10
24639;BMP180;1641;51.306;12.384;2023-12-20T09:04:41;99710.00;;;7.70
24639;BMP180;1641;51.306;12.384;2023-12-20T09:07:06;99721.00;;;7.60
24639;BMP180;1641;51.306;12.384;2023-12-20T09:09:32;99718.00;;;7.90
24639;BMP180;1641;51.306;12.384;2023-12-20T09:12:01;99732.00;;;8.80
24639;BMP180;1641;51.306;12.384;2023-12-20T09:14:26;99721.00;;;8.60
24639;BMP180;1641;51.306;12.384;2023-12-20T09:16:51;99715.00;;;8.30
24639;BMP180;1641;51.306;12.384;2023-12-20T09:19:17;99720.00;;;8.80
24639;BMP180;1641;51.306;12.384;2023-12-20T09:21:43;99710.00;;;8.30
24639;BMP180;1641;51.306;12.384;2023-12-20T09:24:08;99714.00;;;8.50
24639;BMP180;1641;51.306;12.384;2023-12-20T09:26:34;99708.00;;;8.60
24639;BMP180;1641;51.306;12.384;2023-12-20T09:28:59;99702.00;;;8.40
24639;BMP180;1641;51.306;12.384;2023-12-20T09:31:24;99674.00;;;8.10
24639;BMP180;1641;51.306;12.384;2023-12-20T09:33:50;99703.00;;;7.90
24639;BMP180;1641;51.306;12.384;2023-12-20T09:36:15;99685.00;;;7.90
24639;BMP180;1641;51.306;12.384;2023-12-20T09:38:40;99706.00;;;7.90
24639;BMP180;1641;51.306;12.384;2023-12-20T09:41:05;99648.00;;;7.80
24639;BMP180;1641;51.306;12.384;2023-12-20T09:43:32;99705.00;;;8.20
24639;BMP180;1641;51.306;12.384;2023-12-20T09:46:00;99712.00;;;7.90
24639;BMP180;1641;51.306;12.384;2023-12-20T09:48:27;99669.00;;;7.90
24639;BMP180;1641;51.306;12.384;2023-12-20T09:50:53;99687.00;;;8.10
24639;BMP180;1641;51.306;12.384;2023-12-20T09:53:19;99687.00;;;8.00
24639;BMP180;1641;51.306;12.384;2023-12-20T09:55:45;99669.00;;;8.30
24639;BMP180;1641;51.306;12.384;2023-12-20T09:58:10;99675.00;;;8.50
24639;BMP180;1641;51.306;12.384;2023-12-20T10:00:35;99670.00;;;8.20
24639;BMP180;1641;51.306;12.384;2023-12-20T10:03:01;99671.00;;;8.40
24639;BMP180;1641;51.306;12.384;2023-12-20T10:05:31;99660.00;;;8.20
24639;BMP180;1641;51.306;12.384;2023-12-20T10:07:57;99667.00;;;7.80
24639;BMP180;1641;51.306;12.384;2023-12-20T10:10:22;99677.00;;;7.60
24639;BMP180;1641;51.306;12.384;2023-12-20T10:13:05;99664.00;;;8.00
24639;BMP180;1641;51.306;12.384;2023-12-20T10:15:31;99650.00;;;8.30
24639;BMP180;1641;51.306;12.384;2023-12-20T10:17:57;99652.00;;;8.00
24639;BMP180;1641;51.306;12.384;2023-12-20T10:20:22;99658.00;;;8.20
24639;BMP180;1641;51.306;12.384;2023-12-20T10:22:48;99625.00;;;8.70
24639;BMP180;1641;51.306;12.384;2023-12-20T10:25:14;99647.00;;;8.70
24639;BMP180;1641;51.306;12.384;2023-12-20T10:27:39;99652.00;;;8.80
24639;BMP180;1641;51.306;12.384;2023-12-20T10:30:05;99634.00;;;8.70
24639;BMP180;1641;51.306;12.384;2023-12-20T10:32:30;99649.00;;;8.40
24639;BMP180;1641;51.306;12.384;2023-12-20T10:34:56;99606.00;;;8.50
24639;BMP180;1641;51.306;12.384;2023-12-20T10:37:22;99640.00;;;8.10
24639;BMP180;1641;51.306;12.384;2023-12-20T10:39:50;99629.00;;;8.30
24639;BMP180;1641;51.306;12.384;2023-12-20T10:42:16;99626.00;;;8.50
24639;BMP180;1641;51.306;12.384;2023-12-20T10:44:42;99633.00;;;8.70
24639;BMP180;1641;51.306;12.384;2023-12-20T10:47:09;99605.00;;;8.60
24639;BMP180;1641;51.306;12.384;2023-12-20T10:49:37;99629.00;;;8.50
24639;BMP180;1641;51.306;12.384;2023-12-20T10:52:03;99624.00;;;8.60
24639;BMP180;1641;51.306;12.384;2023-12-20T10:54:29;99621.00;;;8.50
24639;BMP180;1641;51.306;12.384;2023-12-20T10:56:57;99614.00;;;8.60
24639;BMP180;1641;51.306;12.384;2023-12-20T10:59:24;99613.00;;;8.90
24639;BMP180;1641;51.306;12.384;2023-12-20T11:01:50;99594.00;;;8.70
24639;BMP180;1641;51.306;12.384;2023-12-20T11:04:22;99617.00;;;9.00
24639;BMP180;1641;51.306;12.384;2023-12-20T11:06:54;99600.00;;;9.10
24639;BMP180;1641;51.306;12.384;2023-12-20T11:11:56;99614.00;;;8.90
24639;BMP180;1641;51.306;12.384;2023-12-20T11:14:24;99606.00;;;8.90
24639;BMP180;1641;51.306;12.384;2023-12-20T11:16:50;99602.00;;;9.30
24639;BMP180;1641;51.306;12.384;2023-12-20T11:19:16;99601.00;;;9.00
24639;BMP180;1641;51.306;12.384;2023-12-20T11:21:41;99564.00;;;9.30
24639;BMP180;1641;51.306;12.384;2023-12-20T11:24:07;99589.00;;;9.10
24639;BMP180;1641;51.306;12.384;2023-12-20T11:26:33;99570.00;;;9.00
24639;BMP180;1641;51.306;12.384;2023-12-20T11:31:55;99537.00;;;9.20
24639;BMP180;1641;51.306;12.384;2023-12-20T11:34:21;99603.00;;;9.10
24639;BMP180;1641;51.306;12.384;2023-12-20T11:36:46;99588.00;;;9.00
24639;BMP180;1641;51.306;12.384;2023-12-20T11:39:11;99591.00;;;9.20
24639;BMP180;1641;51.306;12.384;2023-12-20T11:41:38;99576.00;;;9.00
24639;BMP180;1641;51.306;12.384;2023-12-20T11:44:04;99571.00;;;8.80
24639;BMP180;1641;51.306;12.384;2023-12-20T11:46:31;99564.00;;;8.60
24639;BMP180;1641;51.306;12.384;2023-12-20T11:48:56;99543.00;;;8.40
24639;BMP180;1641;51.306;12.384;2023-12-20T11:51:21;99570.00;;;8.40
24639;BMP180;1641;51.306;12.384;2023-12-20T11:53:51;99547.00;;;8.70
24639;BMP180;1641;51.306;12.384;2023-12-20T11:56:16;99545.00;;;9.00
24639;BMP180;1641;51.306;12.384;2023-12-20T11:58:42;99538.00;;;9.00
24639;BMP180;1641;51.306;12.384;2023-12-20T12:01:08;99529.00;;;8.90
24639;BMP180;1641;51.306;12.384;2023-12-20T12:03:33;99515.00;;;8.80
24639;BMP180;1641;51.306;12.384;2023-12-20T12:05:58;99515.00;;;8.70
24639;BMP180;1641;51.306;12.384;2023-12-20T12:08:25;99507.00;;;8.80
24639;BMP180;1641;51.306;12.384;2023-12-20T12:10:51;99516.00;;;8.70
24639;BMP180;1641;51.306;12.384;2023-12-20T12:13:16;99478.00;;;8.40
24639;BMP180;1641;51.306;12.384;2023-12-20T12:15:42;99482.00;;;8.40
24639;BMP180;1641;51.306;12.384;2023-12-20T12:18:07;99501.00;;;8.80
24639;BMP180;1641;51.306;12.384;2023-12-20T12:20:33;99497.00;;;8.60
24639;BMP180;1641;51.306;12.384;2023-12-20T12:25:24;99491.00;;;8.30
24639;BMP180;1641;51.306;12.384;2023-12-20T12:27:51;99508.00;;;8.40
24639;BMP180;1641;51.306;12.384;2023-12-20T12:30:16;99507.00;;;8.80
24639;BMP180;1641;51.306;12.384;2023-12-20T12:32:44;99503.00;;;8.70
24639;BMP180;1641;51.306;12.384;2023-12-20T12:35:09;99506.00;;;8.90
24639;BMP180;1641;51.306;12.384;2023-12-20T12:37:37;99424.00;;;9.10
24639;BMP180;1641;51.306;12.384;2023-12-20T12:40:04;99480.00;;;8.70
24639;BMP180;1641;51.306;12.384;2023-12-20T12:42:30;99478.00;;;8.60
24639;BMP180;1641;51.306;12.384;2023-12-20T12:44:55;99472.00;;;8.50
24639;BMP180;1641;51.306;12.384;2023-12-20T12:47:23;99479.00;;;8.80
24639;BMP180;1641;51.306;12.384;2023-12-20T12:49:51;99483.00;;;9.10
24639;BMP180;1641;51.306;12.384;2023-12-20T12:52:17;99471.00;;;9.00
24639;BMP180;1641;51.306;12.384;2023-12-20T12:54:42;99480.00;;;9.10
24639;BMP180;1641;51.306;12.384;2023-12-20T12:57:10;99468.00;;;9.20
24639;BMP180;1641;51.306;12.384;2023-12-20T12:59:35;99469.00;;;8.90
24639;BMP180;1641;51.306;12.384;2023-12-20T13:02:00;99456.00;;;8.70
24639;BMP180;1641;51.306;12.384;2023-12-20T13:04:25;99461.00;;;8.70
24639;BMP180;1641;51.306;12.384;2023-12-20T13:06:50;99463.00;;;9.00
24639;BMP180;1641;51.306;12.384;2023-12-20T13:09:16;99380.00;;;9.10
24639;BMP180;1641;51.306;12.384;2023-12-20T13:11:41;99479.00;;;8.80
24639;BMP180;1641;51.306;12.384;2023-12-20T13:14:07;99466.00;;;9.10
24639;BMP180;1641;51.306;12.384;2023-12-20T13:16:35;99449.00;;;9.40
24639;BMP180;1641;51.306;12.384;2023-12-20T13:19:00;99472.00;;;9.00
24639;BMP180;1641;51.306;12.384;2023-12-20T13:21:26;99418.00;;;9.10
24639;BMP180;1641;51.306;12.384;2023-12-20T13:23:51;99464.00;;;9.00
24639;BMP180;1641;51.306;12.384;2023-12-20T13:26:17;99433.00;;;8.60
24639;BMP180;1641;51.306;12.384;2023-12-20T13:28:42;99453.00;;;8.70
24639;BMP180;1641;51.306;12.384;2023-12-20T13:31:08;99426.00;;;8.60
24639;BMP180;1641;51.306;12.384;2023-12-20T13:33:33;99392.00;;;8.80
24639;BMP180;1641;51.306;12.384;2023-12-20T13:35:58;99449.00;;;8.80
24639;BMP180;1641;51.306;12.384;2023-12-20T13:38:24;99433.00;;;8.60
24639;BMP180;1641;51.306;12.384;2023-12-20T13:40:50;99423.00;;;8.40
24639;BMP180;1641;51.306;12.384;2023-12-20T13:43:15;99421.00;;;8.50
24639;BMP180;1641;51.306;12.384;2023-12-20T13:45:45;99430.00;;;8.40
24639;BMP180;1641;51.306;12.384;2023-12-20T13:48:10;99431.00;;;8.40
24639;BMP180;1641;51.306;12.384;2023-12-20T13:50:36;99422.00;;;8.60
24639;BMP180;1641;51.306;12.384;2023-12-20T13:53:01;99424.00;;;8.30
24639;BMP180;1641;51.306;12.384;2023-12-20T13:55:29;99436.00;;;8.20
24639;BMP180;1641;51.306;12.384;2023-12-20T13:57:54;99408.00;;;8.30
24639;BMP180;1641;51.306;12.384;2023-12-20T14:00:19;99397.00;;;8.50
24639;BMP180;1641;51.306;12.384;2023-12-20T14:02:45;99422.00;;;8.40
24639;BMP180;1641;51.306;12.384;2023-12-20T14:05:11;99426.00;;;8.40
24639;BMP180;1641;51.306;12.384;2023-12-20T14:07:38;99352.00;;;8.50
24639;BMP180;1641;51.306;12.384;2023-12-20T14:10:04;99406.00;;;8.40
24639;BMP180;1641;51.306;12.384;2023-12-20T14:12:30;99410.00;;;8.40
24639;BMP180;1641;51.306;12.384;2023-12-20T14:14:57;99435.00;;;8.30
24639;BMP180;1641;51.306;12.384;2023-12-20T14:17:22;99444.00;;;8.20
24639;BMP180;1641;51.306;12.384;2023-12-20T14:19:47;99426.00;;;8.20
24639;BMP180;1641;51.306;12.384;2023-12-20T14:22:13;99418.00;;;8.30